Charlevoix, Michigan
Current Conditions -  °F | °C
As of 1:55 AM on Thursday 27 Nov 2014 (Local Time) from KCVX Reporting Station
Overcast Overcast  
Wind Chill: 21°   Ceiling: 1700
Heat Index: 29°   Visibility: 10mi
Dew Point: 25°   Wind: 9mph
Humidity: 86%   Direction: 340°NNW
Pressure: 30.14"   Gusts: NA
Location:  45.32°N, 85.26°W
Report Text: KCVX 270655Z AUTO 34008KT 10SM OVC017 M02/M04 A3014 RMK AO2 T10161037
Loading
Personal Weather Stations






























Interactive Weather Map New forecast layout! Learn more

10-Day Weather Forecast

Advertisements
Track Severe Weather on mobile